createdAt,value
2023-02-22T00:03:00.545Z,13.48
2023-02-22T00:06:06.778Z,12.43
2023-02-22T00:09:20.855Z,11.73
2023-02-22T00:12:29.444Z,13.73
2023-02-22T00:15:35.266Z,13.40
2023-02-22T00:18:40.892Z,12.57
2023-02-22T00:21:47.890Z,13.25
2023-02-22T00:24:55.647Z,12.88
2023-02-22T00:31:06.890Z,13.02
2023-02-22T00:34:12.203Z,13.63
2023-02-22T00:37:17.765Z,12.50
2023-02-22T00:40:26.385Z,13.80
2023-02-22T00:43:32.072Z,13.93
2023-02-22T00:46:37.340Z,12.68
2023-02-22T00:49:43.120Z,13.60
2023-02-22T00:52:48.923Z,13.05
2023-02-22T00:55:57.268Z,14.35
2023-02-22T00:59:03.202Z,14.50
2023-02-22T01:02:09.682Z,14.32
2023-02-22T01:05:17.106Z,14.43
2023-02-22T01:08:22.258Z,13.45
2023-02-22T01:11:31.382Z,13.43
2023-02-22T01:14:36.981Z,14.60
2023-02-22T01:17:44.356Z,15.10
2023-02-22T01:20:50.743Z,14.75
2023-02-22T01:23:56.390Z,12.98
2023-02-22T01:27:04.949Z,13.73
2023-02-22T01:30:12.575Z,13.52
2023-02-22T01:33:18.651Z,13.50
2023-02-22T01:36:24.415Z,14.32
2023-02-22T01:39:32.671Z,13.60
2023-02-22T01:42:40.815Z,14.45
2023-02-22T01:45:53.749Z,15.00
2023-02-22T01:49:00.508Z,13.85
2023-02-22T01:52:09.286Z,13.85
2023-02-22T01:55:14.820Z,13.85
2023-02-22T01:58:24.469Z,15.10
2023-02-22T02:01:30.034Z,13.02
2023-02-22T02:04:36.845Z,13.98
2023-02-22T02:07:45.710Z,14.77
2023-02-22T02:10:51.458Z,14.07
2023-02-22T02:14:01.604Z,14.45
2023-02-22T02:17:07.967Z,14.80
2023-02-22T02:20:16.642Z,15.05
2023-02-22T02:23:45.890Z,15.25
2023-02-22T02:27:05.404Z,13.55
2023-02-22T02:30:38.148Z,14.38
2023-02-22T02:33:47.032Z,12.82
2023-02-22T02:36:56.221Z,13.82
2023-02-22T02:40:05.138Z,14.63
2023-02-22T02:43:14.865Z,12.82
2023-02-22T02:46:24.385Z,13.52
2023-02-22T02:49:33.810Z,13.98
2023-02-22T02:52:40.978Z,12.35
2023-02-22T02:55:46.292Z,14.25
2023-02-22T02:58:54.022Z,12.50
2023-02-22T03:02:09.549Z,13.63
2023-02-22T03:05:23.868Z,11.25
2023-02-22T03:08:33.579Z,11.93
2023-02-22T03:11:48.705Z,12.65
2023-02-22T03:15:00.621Z,12.68
2023-02-22T03:18:07.612Z,13.95
2023-02-22T03:21:19.528Z,13.40
2023-02-22T03:24:28.877Z,13.18
2023-02-22T03:27:37.154Z,9.30
2023-02-22T03:30:45.951Z,11.52
2023-02-22T03:33:54.655Z,12.10
2023-02-22T03:37:04.101Z,13.70
2023-02-22T03:40:14.920Z,13.80
2023-02-22T03:43:28.091Z,11.57
2023-02-22T03:46:38.197Z,11.95
2023-02-22T03:52:51.630Z,12.57
2023-02-22T03:56:03.664Z,13.07
2023-02-22T03:59:10.363Z,12.38
2023-02-22T04:02:19.268Z,12.20
2023-02-22T04:05:26.410Z,12.52
2023-02-22T04:08:34.536Z,12.88
2023-02-22T04:11:40.925Z,12.70
2023-02-22T04:14:46.573Z,11.98
2023-02-22T04:17:52.723Z,11.60
2023-02-22T04:20:58.298Z,11.45
2023-02-22T04:24:12.856Z,12.95
2023-02-22T04:27:20.298Z,11.82
2023-02-22T04:30:26.124Z,11.57
2023-02-22T04:33:32.217Z,12.02
2023-02-22T04:36:37.884Z,12.68
2023-02-22T04:39:46.209Z,12.82
2023-02-22T04:42:51.823Z,12.23
2023-02-22T04:45:57.599Z,10.70
2023-02-22T04:49:02.925Z,12.35
2023-02-22T04:52:11.318Z,12.10
2023-02-22T04:55:20.453Z,13.10
2023-02-22T04:58:25.797Z,12.27
2023-02-22T05:01:34.216Z,10.95
2023-02-22T05:04:41.316Z,11.32
2023-02-22T05:07:47.016Z,12.13
2023-02-22T05:10:54.959Z,12.55
2023-02-22T05:17:05.883Z,11.95
2023-02-22T05:20:11.834Z,11.88
2023-02-22T05:23:17.231Z,13.20
2023-02-22T05:26:25.431Z,10.25
2023-02-22T05:29:30.953Z,11.25
2023-02-22T05:32:36.329Z,11.68
2023-02-22T05:35:42.211Z,12.77
2023-02-22T05:38:47.574Z,11.23
2023-02-22T05:41:55.965Z,10.98
2023-02-22T05:45:01.076Z,12.10
2023-02-22T05:48:07.972Z,11.70
2023-02-22T05:51:13.802Z,12.75
2023-02-22T05:54:19.500Z,12.70
2023-02-22T05:57:27.579Z,11.63
2023-02-22T06:00:33.974Z,11.93
2023-02-22T06:03:39.796Z,11.23
2023-02-22T06:06:46.140Z,10.93
2023-02-22T06:09:51.452Z,13.43
2023-02-22T06:13:00.180Z,12.77
2023-02-22T06:16:05.724Z,11.98
2023-02-22T06:19:11.095Z,13.00
2023-02-22T06:22:20.104Z,12.80
2023-02-22T06:25:27.472Z,11.57
2023-02-22T06:28:35.348Z,11.73
2023-02-22T06:31:40.909Z,12.40
2023-02-22T06:34:46.421Z,13.43
2023-02-22T06:37:52.060Z,12.68
2023-02-22T06:40:58.342Z,11.68
2023-02-22T06:44:06.377Z,13.52
2023-02-22T06:47:11.487Z,12.50
2023-02-22T06:50:22.873Z,11.30
2023-02-22T06:53:28.465Z,11.68
2023-02-22T06:56:33.986Z,12.00
2023-02-22T06:59:42.092Z,13.05
2023-02-22T07:02:48.596Z,11.32
2023-02-22T07:05:55.730Z,11.40
2023-02-22T07:09:01.374Z,11.52
2023-02-22T07:12:08.328Z,12.52
2023-02-22T07:15:18.398Z,12.55
2023-02-22T07:18:24.423Z,12.73
2023-02-22T07:21:29.668Z,12.68
2023-02-22T07:24:35.358Z,11.77
2023-02-22T07:27:42.000Z,10.20
2023-02-22T07:30:49.804Z,11.50
2023-02-22T07:33:55.207Z,11.55
2023-02-22T07:37:00.728Z,13.27
2023-02-22T07:40:06.404Z,11.32
2023-02-22T07:43:17.171Z,11.68
2023-02-22T07:46:25.121Z,12.32
2023-02-22T07:49:30.712Z,12.05
2023-02-22T07:52:37.213Z,11.60
2023-02-22T07:55:42.549Z,13.45
2023-02-22T07:58:48.293Z,10.75
2023-02-22T08:01:56.114Z,11.73
2023-02-22T08:05:01.977Z,10.20
2023-02-22T08:08:09.774Z,12.05
2023-02-22T08:11:15.444Z,12.15
2023-02-22T08:14:20.917Z,10.27
2023-02-22T08:17:28.932Z,10.20
2023-02-22T08:20:34.454Z,12.13
2023-02-22T08:23:39.954Z,11.65
2023-02-22T08:26:48.410Z,12.43
2023-02-22T08:29:53.740Z,11.75
2023-02-22T08:33:02.885Z,9.15
2023-02-22T08:36:09.663Z,11.60
2023-02-22T08:39:15.366Z,10.90
2023-02-22T08:42:20.688Z,11.75
2023-02-22T08:45:26.537Z,10.93
2023-02-22T08:48:34.657Z,11.38
2023-02-22T08:51:40.807Z,9.73
2023-02-22T08:54:48.478Z,11.15
2023-02-22T08:57:54.133Z,9.32
2023-02-22T09:00:59.861Z,11.10
2023-02-22T09:04:07.990Z,10.45
2023-02-22T09:07:13.696Z,11.35
2023-02-22T09:10:20.018Z,10.10
2023-02-22T09:13:25.636Z,10.85
2023-02-22T09:16:30.873Z,11.32
2023-02-22T09:19:39.043Z,10.50
2023-02-22T09:22:44.385Z,10.05
2023-02-22T09:25:49.960Z,11.45
2023-02-22T09:28:55.260Z,10.68
2023-02-22T09:32:00.750Z,9.50
2023-02-22T09:35:09.813Z,9.88
2023-02-22T09:38:16.477Z,11.32
2023-02-22T09:41:23.663Z,10.27
2023-02-22T09:44:32.741Z,11.38
2023-02-22T09:47:46.857Z,11.15
2023-02-22T09:50:57.237Z,11.48
2023-02-22T09:54:04.239Z,10.63
2023-02-22T09:57:11.673Z,11.38
2023-02-22T10:00:20.128Z,11.00
2023-02-22T10:03:28.599Z,11.13
2023-02-22T10:06:37.261Z,10.23
2023-02-22T10:09:45.350Z,10.68
2023-02-22T10:12:53.524Z,12.20
2023-02-22T10:19:11.332Z,10.48
2023-02-22T10:22:31.314Z,10.00
2023-02-22T10:25:41.451Z,10.82
2023-02-22T10:28:53.615Z,10.27
2023-02-22T10:32:00.951Z,11.15
2023-02-22T10:35:07.784Z,10.57
2023-02-22T10:38:16.915Z,11.07
2023-02-22T10:41:28.487Z,10.73
2023-02-22T10:44:34.190Z,9.98
2023-02-22T10:47:39.296Z,9.32
2023-02-22T10:50:46.036Z,10.32
2023-02-22T10:53:59.818Z,11.10
2023-02-22T10:57:08.176Z,10.82
2023-02-22T11:00:20.110Z,10.20
2023-02-22T11:03:27.518Z,11.55
2023-02-22T11:06:33.382Z,8.63
2023-02-22T11:09:50.418Z,10.50
2023-02-22T11:12:58.936Z,11.43
2023-02-22T11:16:05.704Z,10.43
2023-02-22T11:19:28.754Z,10.40
2023-02-22T11:22:38.980Z,11.27
2023-02-22T11:25:45.606Z,11.30
2023-02-22T11:28:56.362Z,11.70
2023-02-22T11:32:04.685Z,10.38
2023-02-22T11:35:26.596Z,10.13
2023-02-22T11:38:33.916Z,11.38
2023-02-22T11:41:39.358Z,10.70
2023-02-22T11:44:47.842Z,10.30
2023-02-22T11:47:55.726Z,9.95
2023-02-22T11:51:16.656Z,10.60
2023-02-22T11:54:29.510Z,11.25
2023-02-22T11:57:41.455Z,11.02
2023-02-22T12:00:55.430Z,11.40
2023-02-22T12:04:16.012Z,11.18
2023-02-22T12:07:27.293Z,10.90
2023-02-22T12:10:42.305Z,10.60
2023-02-22T12:14:08.696Z,10.82
2023-02-22T12:17:35.162Z,10.15
2023-02-22T12:20:42.926Z,10.73
2023-02-22T12:23:50.966Z,11.60
2023-02-22T12:26:59.026Z,10.82
2023-02-22T12:33:14.770Z,10.05
2023-02-22T12:36:23.044Z,10.77
2023-02-22T12:39:47.142Z,10.65
2023-02-22T12:43:01.650Z,10.98
2023-02-22T12:46:08.573Z,10.40
2023-02-22T12:49:22.805Z,9.30
2023-02-22T12:52:35.801Z,10.65
2023-02-22T12:55:46.185Z,10.07
2023-02-22T12:58:54.798Z,10.07
2023-02-22T13:02:01.963Z,11.02
2023-02-22T13:05:10.205Z,10.57
2023-02-22T13:08:23.034Z,11.18
2023-02-22T13:11:31.338Z,11.30
2023-02-22T13:14:42.975Z,9.95
2023-02-22T13:17:52.305Z,10.23
2023-02-22T13:21:02.889Z,9.98
2023-02-22T13:24:13.789Z,11.02
2023-02-22T13:27:21.957Z,10.32
2023-02-22T13:30:30.705Z,9.93
2023-02-22T13:33:44.384Z,9.57
2023-02-22T13:37:03.835Z,10.20
2023-02-22T13:40:21.482Z,10.07
2023-02-22T13:43:44.419Z,9.80
2023-02-22T13:47:04.344Z,10.52
2023-02-22T13:50:21.115Z,9.40
2023-02-22T13:53:30.503Z,9.77
2023-02-22T13:56:36.313Z,9.85
2023-02-22T13:59:41.477Z,9.07
2023-02-22T14:03:01.214Z,8.98
2023-02-22T14:06:10.818Z,9.18
2023-02-22T14:09:22.894Z,10.20
2023-02-22T14:12:43.259Z,9.23
2023-02-22T14:16:06.443Z,9.45
2023-02-22T14:19:17.086Z,9.75
2023-02-22T14:22:28.445Z,10.65
2023-02-22T14:25:39.899Z,9.40
2023-02-22T14:28:50.473Z,9.48
2023-02-22T14:32:04.561Z,9.63
2023-02-22T14:35:25.495Z,8.73
2023-02-22T14:38:32.800Z,8.35
2023-02-22T14:41:41.212Z,9.25
2023-02-22T14:44:52.104Z,8.40
2023-02-22T14:48:01.446Z,8.75
2023-02-22T14:51:21.359Z,9.77
2023-02-22T14:54:29.290Z,9.73
2023-02-22T14:57:42.563Z,8.27
2023-02-22T15:00:48.920Z,7.97
2023-02-22T15:04:07.577Z,8.15
2023-02-22T15:07:29.123Z,8.70
2023-02-22T15:10:43.161Z,8.50
2023-02-22T15:13:55.847Z,8.05
2023-02-22T15:17:03.634Z,8.23
2023-02-22T15:20:11.916Z,8.35
2023-02-22T15:23:18.197Z,8.93
2023-02-22T15:26:25.914Z,7.75
2023-02-22T15:29:36.260Z,7.53
2023-02-22T15:32:57.363Z,8.65
2023-02-22T15:36:08.466Z,7.57
2023-02-22T15:39:25.726Z,8.63
2023-02-22T15:42:31.565Z,8.27
2023-02-22T15:45:43.296Z,8.20
2023-02-22T15:49:06.667Z,8.95
2023-02-22T15:52:13.193Z,8.45
2023-02-22T15:55:19.166Z,7.93
2023-02-22T15:58:28.979Z,8.57
2023-02-22T16:01:42.505Z,8.65
2023-02-22T16:04:59.077Z,9.20
2023-02-22T16:08:04.802Z,8.98
2023-02-22T16:11:13.664Z,10.20
2023-02-22T16:14:29.788Z,9.68
2023-02-22T16:18:02.262Z,8.82
2023-02-22T16:21:12.011Z,8.68
2023-02-22T16:24:28.447Z,9.35
2023-02-22T16:27:47.792Z,9.02
2023-02-22T16:31:00.273Z,8.63
2023-02-22T16:34:09.387Z,9.20
2023-02-22T16:37:25.237Z,9.60
2023-02-22T16:40:32.759Z,9.63
2023-02-22T16:43:38.388Z,9.80
2023-02-22T16:46:44.776Z,9.57
2023-02-22T16:49:57.341Z,9.55
2023-02-22T16:53:03.517Z,8.77
2023-02-22T16:56:11.930Z,9.93
2023-02-22T16:59:18.253Z,8.98
2023-02-22T17:02:23.381Z,9.00
2023-02-22T17:05:31.313Z,9.23
2023-02-22T17:08:36.758Z,9.77
2023-02-22T17:11:42.352Z,10.57
2023-02-22T17:14:48.611Z,8.15
2023-02-22T17:17:54.761Z,9.63
2023-02-22T17:21:03.607Z,8.80
2023-02-22T17:24:09.213Z,10.18
2023-02-22T17:27:14.475Z,9.77
2023-02-22T17:30:23.910Z,9.52
2023-02-22T17:33:29.593Z,8.27
2023-02-22T17:36:38.364Z,10.07
2023-02-22T17:39:43.653Z,8.98
2023-02-22T17:42:50.635Z,9.55
2023-02-22T17:45:56.033Z,9.88
2023-02-22T17:49:02.116Z,9.48
2023-02-22T17:52:14.888Z,8.32
2023-02-22T17:55:20.520Z,9.30
2023-02-22T17:58:31.069Z,8.82
2023-02-22T18:01:36.435Z,9.13
2023-02-22T18:04:41.420Z,9.30
2023-02-22T18:07:49.624Z,8.57
2023-02-22T18:10:56.713Z,8.18
2023-02-22T18:14:01.935Z,8.75
2023-02-22T18:17:07.656Z,9.52
2023-02-22T18:20:14.898Z,9.55
2023-02-22T18:23:28.059Z,9.20
2023-02-22T18:26:33.715Z,8.05
2023-02-22T18:29:39.063Z,9.13
2023-02-22T18:32:46.384Z,9.65
2023-02-22T18:35:52.960Z,8.43
2023-02-22T18:39:01.105Z,8.07
2023-02-22T18:42:06.566Z,7.90
2023-02-22T18:45:12.175Z,8.55
2023-02-22T18:48:17.243Z,9.02
2023-02-22T18:51:23.045Z,8.82
2023-02-22T18:54:31.441Z,8.80
2023-02-22T18:57:36.571Z,8.65
2023-02-22T19:00:42.422Z,8.77
2023-02-22T19:03:48.006Z,8.57
2023-02-22T19:06:53.518Z,9.05
2023-02-22T19:10:02.742Z,8.48
2023-02-22T19:13:11.256Z,7.57
2023-02-22T19:16:17.263Z,8.98
2023-02-22T19:19:25.417Z,8.35
2023-02-22T19:22:33.014Z,8.35
2023-02-22T19:25:41.572Z,7.63
2023-02-22T19:28:46.851Z,7.80
2023-02-22T19:31:54.166Z,9.25
2023-02-22T19:35:02.368Z,7.65
2023-02-22T19:38:08.574Z,8.07
2023-02-22T19:41:18.441Z,7.25
2023-02-22T19:44:24.093Z,7.53
2023-02-22T19:47:29.766Z,7.90
2023-02-22T19:50:35.406Z,8.27
2023-02-22T19:53:41.533Z,6.97
2023-02-22T19:56:51.527Z,7.28
2023-02-22T19:59:56.974Z,6.95
2023-02-22T20:03:06.298Z,7.85
2023-02-22T20:06:12.085Z,7.05
2023-02-22T20:09:19.330Z,8.43
2023-02-22T20:12:27.310Z,7.32
2023-02-22T20:18:37.679Z,7.13
2023-02-22T20:21:43.433Z,7.47
2023-02-22T20:24:49.419Z,7.65
2023-02-22T20:27:58.614Z,7.78
2023-02-22T20:31:03.906Z,7.00
2023-02-22T20:34:09.953Z,6.82
2023-02-22T20:37:15.312Z,6.40
2023-02-22T20:40:20.704Z,7.13
2023-02-22T20:43:28.574Z,6.95
2023-02-22T20:46:36.401Z,7.28
2023-02-22T20:49:41.578Z,7.20
2023-02-22T20:52:46.966Z,7.65
2023-02-22T20:55:52.375Z,6.72
2023-02-22T20:59:02.314Z,7.68
2023-02-22T21:02:07.554Z,7.20
2023-02-22T21:05:12.949Z,7.07
2023-02-22T21:08:18.642Z,7.43
2023-02-22T21:11:24.866Z,7.80
2023-02-22T21:14:32.817Z,6.88
2023-02-22T21:20:43.893Z,5.90
2023-02-22T21:23:52.075Z,6.70
2023-02-22T21:26:59.400Z,6.72
2023-02-22T21:30:07.481Z,8.50
2023-02-22T21:33:13.457Z,6.82
2023-02-22T21:36:19.109Z,8.00
2023-02-22T21:39:28.607Z,6.93
2023-02-22T21:42:33.983Z,7.38
2023-02-22T21:45:42.060Z,6.53
2023-02-22T21:51:54.653Z,6.97
2023-02-22T21:54:59.897Z,7.43
2023-02-22T21:58:06.230Z,7.15
2023-02-22T22:01:17.989Z,7.72
2023-02-22T22:04:24.711Z,7.70
2023-02-22T22:07:30.378Z,7.22
2023-02-22T22:10:35.986Z,7.80
2023-02-22T22:13:42.760Z,8.60
2023-02-22T22:16:52.167Z,7.18
2023-02-22T22:19:57.394Z,7.50
2023-02-22T22:23:03.319Z,6.72
2023-02-22T22:26:12.012Z,7.40
2023-02-22T22:29:18.780Z,7.03
2023-02-22T22:32:27.492Z,7.00
2023-02-22T22:35:33.663Z,8.25
2023-02-22T22:38:39.876Z,8.30
2023-02-22T22:41:45.243Z,8.25
2023-02-22T22:44:50.922Z,7.97
2023-02-22T22:47:58.917Z,8.20
2023-02-22T22:51:06.823Z,8.23
2023-02-22T22:54:12.359Z,7.63
2023-02-22T22:57:18.099Z,8.40
2023-02-22T23:00:37.690Z,7.57
2023-02-22T23:03:48.908Z,7.43
2023-02-22T23:06:55.209Z,7.47
2023-02-22T23:10:00.401Z,7.63
2023-02-22T23:13:05.848Z,7.50
2023-02-22T23:16:13.103Z,7.22
2023-02-22T23:19:21.592Z,7.13
2023-02-22T23:22:28.340Z,7.30
2023-02-22T23:25:33.355Z,7.25
2023-02-22T23:28:38.837Z,6.65
2023-02-22T23:31:44.398Z,6.90
2023-02-22T23:34:52.493Z,6.90
2023-02-22T23:37:59.034Z,7.15
2023-02-22T23:41:04.717Z,6.85
2023-02-22T23:44:13.995Z,7.35
2023-02-22T23:47:19.407Z,6.93
2023-02-22T23:50:29.299Z,6.97
2023-02-22T23:53:34.548Z,5.97
2023-02-22T23:56:40.505Z,6.78
2023-02-22T23:59:46.134Z,8.02
